Time;durP1;ratioP1;P1;durP2;ratioP2;P2;SDS_P1;SDS_P2;PMS_P1;PMS_P2;Temp;Humidity;BMP_temperature;BMP_pressure;BME280_temperature;BME280_humidity;BME280_pressure;Samples;Min_cycle;Max_cycle;Signal;HPM_P1;HPM_P2
2021/06/10 00:02:17;;;;;;;629.72;470.10;;;;;;;;;;5019137;28;20024;-73
2021/06/10 00:04:43;;;;;;;612.13;462.00;;;;;;;;;;4964124;28;20077;-73
2021/06/10 00:07:28;;;;;;;600.40;448.33;;;;;;;;;;5031792;28;20486;-74
2021/06/10 00:09:54;;;;;;;616.63;464.25;;;;;;;;;;5001666;28;20473;-77
2021/06/10 00:12:20;;;;;;;614.55;462.00;;;;;;;;;;4971758;28;20371;-76
2021/06/10 00:14:47;;;;;;;618.85;469.33;;;;;;;;;;4985684;28;20038;-76
2021/06/10 00:17:13;;;;;;;611.00;456.63;;;;;;;;;;4996090;28;20160;-76
2021/06/10 00:19:44;;;;;;;614.00;447.73;;;;;;;;;;4973222;28;20375;-76
2021/06/10 00:22:10;;;;;;;;;;;;;;;;;;4987151;28;20541;-76
2021/06/10 00:24:36;;;;;;;598.22;423.88;;;;;;;;;;4988551;28;19995;-76
2021/06/10 00:27:02;;;;;;;599.63;441.67;;;;;;;;;;4974100;28;20057;-76
2021/06/10 00:29:28;;;;;;;599.83;436.35;;;;;;;;;;4973399;28;20036;-76
2021/06/10 00:31:59;;;;;;;624.80;461.20;;;;;;;;;;5007057;28;20109;-77
2021/06/10 00:34:27;;;;;;;621.63;457.48;;;;;;;;;;4971014;28;20418;-76
2021/06/10 00:36:53;;;;;;;615.90;450.67;;;;;;;;;;4970066;28;20083;-76
2021/06/10 00:39:19;;;;;;;611.15;452.02;;;;;;;;;;5024961;28;20030;-76
2021/06/10 00:41:45;;;;;;;616.70;457.10;;;;;;;;;;4986602;28;20027;-76
2021/06/10 00:44:12;;;;;;;613.20;450.23;;;;;;;;;;4969988;28;20027;-76
2021/06/10 00:46:38;;;;;;;617.35;454.75;;;;;;;;;;4969621;28;20036;-76
2021/06/10 00:49:05;;;;;;;611.50;461.27;;;;;;;;;;4978756;28;20102;-76
2021/06/10 00:51:32;;;;;;;595.88;429.58;;;;;;;;;;4983643;28;20519;-76
2021/06/10 00:53:59;;;;;;;604.35;443.40;;;;;;;;;;4977407;28;20023;-76
2021/06/10 00:56:28;;;;;;;604.25;446.00;;;;;;;;;;4966723;28;20018;-76
2021/06/10 00:58:54;;;;;;;596.80;429.90;;;;;;;;;;5013120;28;20071;-76
2021/06/10 01:01:20;;;;;;;599.05;431.48;;;;;;;;;;4988489;28;20027;-76
2021/06/10 01:03:47;;;;;;;601.47;446.63;;;;;;;;;;4993185;28;20031;-76
2021/06/10 01:09:36;;;;;;;610.53;442.67;;;;;;;;;;4983525;28;20041;-76
2021/06/10 01:12:10;;;;;;;605.08;434.48;;;;;;;;;;4960909;28;20034;-76
2021/06/10 01:14:55;;;;;;;603.75;435.25;;;;;;;;;;4966241;28;20018;-76
2021/06/10 01:17:22;;;;;;;604.25;431.33;;;;;;;;;;4967492;28;20046;-76
2021/06/10 01:19:57;;;;;;;601.03;430.90;;;;;;;;;;4984586;28;20442;-76
2021/06/10 01:22:26;;;;;;;610.42;446.52;;;;;;;;;;4970065;28;20379;-76
2021/06/10 01:24:52;;;;;;;611.17;445.33;;;;;;;;;;4963279;28;20030;-76
2021/06/10 01:27:32;;;;;;;609.58;439.60;;;;;;;;;;4967830;28;20057;-75
2021/06/10 01:30:04;;;;;;;600.65;423.75;;;;;;;;;;4957038;28;20031;-76
2021/06/10 01:32:30;;;;;;;596.33;416.55;;;;;;;;;;4967658;28;20083;-76
2021/06/10 01:34:57;;;;;;;598.72;427.13;;;;;;;;;;4971369;28;20459;-76
2021/06/10 01:37:40;;;;;;;594.38;425.73;;;;;;;;;;4972377;28;20019;-76
2021/06/10 01:40:06;;;;;;;603.83;429.30;;;;;;;;;;4954655;28;20029;-76
2021/06/10 01:42:33;;;;;;;612.35;438.10;;;;;;;;;;5050103;28;20417;-76
2021/06/10 01:44:59;;;;;;;605.72;434.67;;;;;;;;;;5064837;28;20038;-76
2021/06/10 01:47:26;;;;;;;604.85;432.58;;;;;;;;;;5050488;28;20039;-76
2021/06/10 01:49:53;;;;;;;599.80;433.17;;;;;;;;;;5052194;28;20116;-76
2021/06/10 01:52:19;;;;;;;602.28;427.75;;;;;;;;;;5053118;28;20075;-76
2021/06/10 01:54:46;;;;;;;598.85;426.88;;;;;;;;;;5068273;28;20047;-76
2021/06/10 01:57:12;;;;;;;596.03;421.67;;;;;;;;;;5049189;28;20037;-76
2021/06/10 01:59:39;;;;;;;605.28;433.85;;;;;;;;;;5042881;28;20029;-76
2021/06/10 02:02:06;;;;;;;620.05;456.80;;;;;;;;;;5067080;28;20051;-76
2021/06/10 02:04:32;;;;;;;604.15;433.25;;;;;;;;;;5069367;28;20112;-76
2021/06/10 02:06:59;;;;;;;608.63;440.42;;;;;;;;;;5051380;28;20476;-76
2021/06/10 02:09:26;;;;;;;607.55;432.98;;;;;;;;;;5049895;28;20040;-76
2021/06/10 02:11:57;;;;;;;609.42;439.58;;;;;;;;;;5040299;28;20029;-76
2021/06/10 02:14:24;;;;;;;607.47;428.42;;;;;;;;;;5003484;28;20459;-76
2021/06/10 02:16:51;;;;;;;601.08;429.15;;;;;;;;;;4979408;28;20042;-76
2021/06/10 02:19:17;;;;;;;605.22;424.55;;;;;;;;;;4965865;28;20538;-76
2021/06/10 02:21:43;;;;;;;610.60;430.10;;;;;;;;;;4984304;28;20101;-76
2021/06/10 02:24:21;;;;;;;600.60;425.52;;;;;;;;;;4961600;28;20038;-76
2021/06/10 02:26:47;;;;;;;562.13;393.13;;;;;;;;;;4981055;28;20030;-76
2021/06/10 02:29:13;;;;;;;562.72;393.52;;;;;;;;;;4952478;28;20058;-76
2021/06/10 02:31:39;;;;;;;556.25;392.58;;;;;;;;;;4960821;28;20030;-76
2021/06/10 02:34:06;;;;;;;559.13;394.38;;;;;;;;;;4967718;28;20469;-76
2021/06/10 02:36:53;;;;;;;553.85;383.30;;;;;;;;;;4980900;28;20033;-76
2021/06/10 02:39:19;;;;;;;555.10;383.05;;;;;;;;;;5005566;28;20477;-76
2021/06/10 02:41:48;;;;;;;553.60;375.17;;;;;;;;;;4986600;28;20117;-76
2021/06/10 02:44:15;;;;;;;559.33;389.83;;;;;;;;;;4976524;28;20057;-76
2021/06/10 02:46:42;;;;;;;561.38;388.98;;;;;;;;;;5004956;28;20031;-76
2021/06/10 02:49:26;;;;;;;558.95;385.42;;;;;;;;;;4957307;28;20026;-76
2021/06/10 02:51:52;;;;;;;560.33;386.98;;;;;;;;;;4957128;28;20490;-76
2021/06/10 02:54:20;;;;;;;565.50;396.33;;;;;;;;;;4984429;28;20499;-76
2021/06/10 02:56:47;;;;;;;565.60;389.70;;;;;;;;;;4974552;28;20533;-76
2021/06/10 02:59:16;;;;;;;570.35;397.48;;;;;;;;;;4987226;28;20382;-76
2021/06/10 03:02:03;;;;;;;574.50;409.23;;;;;;;;;;4986317;28;20046;-76
2021/06/10 03:04:30;;;;;;;579.63;395.27;;;;;;;;;;4998657;28;20020;-76
2021/06/10 03:06:56;;;;;;;572.90;393.95;;;;;;;;;;5012935;28;20455;-76
2021/06/10 03:09:23;;;;;;;572.92;392.52;;;;;;;;;;5007412;28;20088;-76
2021/06/10 03:11:50;;;;;;;569.85;388.17;;;;;;;;;;4990905;28;20053;-76
2021/06/10 03:14:53;;;;;;;574.88;395.65;;;;;;;;;;4972262;28;20463;-76
2021/06/10 03:17:20;;;;;;;571.30;388.58;;;;;;;;;;4965901;28;20378;-76
2021/06/10 03:19:46;;;;;;;573.33;392.42;;;;;;;;;;4970724;28;20347;-76
2021/06/10 03:22:12;;;;;;;568.88;396.20;;;;;;;;;;4968052;28;20039;-76
2021/06/10 03:24:39;;;;;;;567.45;397.83;;;;;;;;;;4980624;28;20033;-77
2021/06/10 03:27:06;;;;;;;566.78;394.10;;;;;;;;;;4992214;28;20061;-76
2021/06/10 03:29:33;;;;;;;566.75;390.48;;;;;;;;;;5064602;28;20040;-77
2021/06/10 03:31:59;;;;;;;565.88;393.17;;;;;;;;;;5057534;28;20025;-76
2021/06/10 03:34:27;;;;;;;564.17;386.38;;;;;;;;;;4966246;28;20415;-76
2021/06/10 03:36:58;;;;;;;566.33;394.40;;;;;;;;;;4968252;28;20526;-76
2021/06/10 03:39:25;;;;;;;565.40;385.75;;;;;;;;;;4973526;28;20026;-76
2021/06/10 03:41:55;;;;;;;569.00;391.90;;;;;;;;;;4964923;28;20026;-76
2021/06/10 03:44:21;;;;;;;575.00;390.02;;;;;;;;;;4967492;28;20030;-76
2021/06/10 03:46:48;;;;;;;572.22;393.65;;;;;;;;;;4983717;28;20030;-76
2021/06/10 03:49:45;;;;;;;575.42;394.48;;;;;;;;;;4967620;28;20023;-76
2021/06/10 03:52:11;;;;;;;574.08;390.60;;;;;;;;;;4990565;28;20031;-76
2021/06/10 03:54:37;;;;;;;572.25;386.98;;;;;;;;;;4970936;28;20037;-76
2021/06/10 03:57:03;;;;;;;578.45;401.30;;;;;;;;;;4978568;28;20113;-76
2021/06/10 03:59:29;;;;;;;568.47;393.00;;;;;;;;;;4974083;28;20022;-76
2021/06/10 04:02:17;;;;;;;568.47;392.25;;;;;;;;;;4992368;28;20102;-76
2021/06/10 04:04:44;;;;;;;560.08;382.63;;;;;;;;;;4988453;28;20071;-76
2021/06/10 04:07:10;;;;;;;555.70;376.15;;;;;;;;;;4990657;28;20523;-76
2021/06/10 04:09:38;;;;;;;549.53;377.05;;;;;;;;;;4989180;28;20027;-76
2021/06/10 04:12:04;;;;;;;546.63;369.25;;;;;;;;;;4968184;28;20034;-76
2021/06/10 04:14:40;;;;;;;556.13;383.40;;;;;;;;;;4984885;28;20128;-76
2021/06/10 04:17:06;;;;;;;555.67;377.15;;;;;;;;;;5035583;28;20090;-77
2021/06/10 04:19:32;;;;;;;561.53;396.40;;;;;;;;;;5051240;28;20036;-77
2021/06/10 04:21:58;;;;;;;558.50;387.73;;;;;;;;;;5045573;28;20040;-77
2021/06/10 04:24:24;;;;;;;617.30;425.55;;;;;;;;;;5051349;28;20039;-76
2021/06/10 04:26:53;;;;;;;569.95;399.60;;;;;;;;;;5045728;28;20033;-76
2021/06/10 04:29:19;;;;;;;573.45;401.25;;;;;;;;;;5028927;28;20516;-76
2021/06/10 04:31:45;;;;;;;579.83;407.63;;;;;;;;;;5035772;28;20040;-76
2021/06/10 04:34:11;;;;;;;579.53;398.13;;;;;;;;;;5034609;28;20037;-76
2021/06/10 04:36:38;;;;;;;579.97;402.20;;;;;;;;;;5034584;28;20031;-76
2021/06/10 04:39:07;;;;;;;585.53;415.48;;;;;;;;;;5047645;28;20037;-76
2021/06/10 04:41:33;;;;;;;584.58;413.73;;;;;;;;;;5032182;28;20588;-76
2021/06/10 04:43:59;;;;;;;581.38;416.88;;;;;;;;;;5025532;28;20119;-76
2021/06/10 04:46:25;;;;;;;588.40;417.63;;;;;;;;;;5028038;28;20075;-76
2021/06/10 04:48:51;;;;;;;595.85;426.27;;;;;;;;;;4966334;28;20039;-76
2021/06/10 04:51:17;;;;;;;590.10;426.20;;;;;;;;;;4978539;28;20034;-76
2021/06/10 04:53:46;;;;;;;612.90;454.63;;;;;;;;;;4981638;28;20032;-75
2021/06/10 04:56:12;;;;;;;599.83;435.10;;;;;;;;;;4959266;28;20037;-76
2021/06/10 04:58:38;;;;;;;606.53;442.90;;;;;;;;;;4967415;28;20459;-76
2021/06/10 05:01:05;;;;;;;611.00;438.20;;;;;;;;;;4972529;28;20061;-76
2021/06/10 05:03:31;;;;;;;606.67;452.25;;;;;;;;;;5012141;28;20383;-76
2021/06/10 05:05:57;;;;;;;632.03;468.77;;;;;;;;;;4968403;28;20110;-75
2021/06/10 05:08:28;;;;;;;604.70;440.77;;;;;;;;;;5020707;28;20416;-76
2021/06/10 05:10:58;;;;;;;673.40;509.38;;;;;;;;;;4966106;28;20043;-76
2021/06/10 05:13:24;;;;;;;604.70;444.97;;;;;;;;;;4968113;28;20039;-76
2021/06/10 05:15:50;;;;;;;621.40;452.63;;;;;;;;;;4957271;28;20019;-76
2021/06/10 05:18:16;;;;;;;702.28;537.22;;;;;;;;;;4961097;28;20038;-76
2021/06/10 05:20:43;;;;;;;683.05;531.38;;;;;;;;;;4957233;28;20023;-76
2021/06/10 05:23:14;;;;;;;696.17;544.00;;;;;;;;;;4986169;28;20014;-76
2021/06/10 05:25:40;;;;;;;627.38;481.63;;;;;;;;;;4967334;28;20023;-76
2021/06/10 05:28:06;;;;;;;702.97;551.00;;;;;;;;;;4972064;28;20096;-76
2021/06/10 05:30:50;;;;;;;622.80;483.77;;;;;;;;;;5053405;28;20483;-76
2021/06/10 05:33:17;;;;;;;632.05;485.25;;;;;;;;;;5051251;28;20064;-76
2021/06/10 05:35:43;;;;;;;614.92;483.95;;;;;;;;;;5047229;28;20107;-76
2021/06/10 05:38:09;;;;;;;725.35;601.67;;;;;;;;;;5049424;28;20021;-75
2021/06/10 05:40:35;;;;;;;689.50;563.00;;;;;;;;;;5073909;28;20077;-76
2021/06/10 05:43:02;;;;;;;677.03;550.53;;;;;;;;;;5071519;28;20013;-76
2021/06/10 05:45:31;;;;;;;652.00;524.53;;;;;;;;;;5049987;28;20170;-76
2021/06/10 05:47:57;;;;;;;642.00;517.35;;;;;;;;;;5049003;28;20031;-76
2021/06/10 05:50:23;;;;;;;658.95;535.83;;;;;;;;;;5068099;28;20473;-76
2021/06/10 05:52:49;;;;;;;637.70;518.85;;;;;;;;;;5049454;28;20532;-76
2021/06/10 05:55:16;;;;;;;672.30;551.13;;;;;;;;;;5052639;28;20048;-76
2021/06/10 05:57:50;;;;;;;674.13;554.03;;;;;;;;;;5065392;28;20082;-76
2021/06/10 06:00:17;;;;;;;634.40;508.30;;;;;;;;;;5058132;28;20032;-76
2021/06/10 06:02:43;;;;;;;701.53;589.22;;;;;;;;;;5042035;28;20036;-76
2021/06/10 06:05:10;;;;;;;716.40;610.28;;;;;;;;;;5076821;28;20036;-73
2021/06/10 06:07:36;;;;;;;698.58;584.80;;;;;;;;;;5047421;28;20120;-73
2021/06/10 06:10:03;;;;;;;689.50;588.17;;;;;;;;;;5066353;28;20037;-73
2021/06/10 06:12:29;;;;;;;698.03;588.90;;;;;;;;;;5064718;28;20049;-74
2021/06/10 06:14:55;;;;;;;731.28;632.78;;;;;;;;;;5069425;28;20094;-73
2021/06/10 06:17:21;;;;;;;713.17;615.45;;;;;;;;;;5062287;28;20024;-74
2021/06/10 06:19:50;;;;;;;718.65;635.58;;;;;;;;;;5048261;28;20029;-74
2021/06/10 06:22:16;;;;;;;740.88;655.60;;;;;;;;;;5064571;28;20081;-74
2021/06/10 06:24:42;;;;;;;733.00;650.50;;;;;;;;;;5073246;28;20024;-75
2021/06/10 06:27:08;;;;;;;730.83;646.08;;;;;;;;;;5061104;28;20059;-74
2021/06/10 06:29:35;;;;;;;646.22;549.22;;;;;;;;;;5074170;28;20047;-74
2021/06/10 06:32:04;;;;;;;716.45;636.08;;;;;;;;;;5067547;28;20040;-74
2021/06/10 06:34:30;;;;;;;708.58;624.85;;;;;;;;;;5053413;28;20025;-74
2021/06/10 06:36:56;;;;;;;686.33;601.10;;;;;;;;;;5071577;28;20028;-74
2021/06/10 06:39:22;;;;;;;677.45;588.33;;;;;;;;;;4997621;28;20035;-74
2021/06/10 06:41:49;;;;;;;657.35;571.85;;;;;;;;;;5024434;28;20134;-74
2021/06/10 06:44:15;;;;;;;681.40;597.33;;;;;;;;;;5007251;28;20032;-74
2021/06/10 06:46:41;;;;;;;732.83;653.30;;;;;;;;;;5058879;28;20550;-74
2021/06/10 06:49:08;;;;;;;678.83;602.92;;;;;;;;;;4995393;28;20031;-75
2021/06/10 06:51:35;;;;;;;711.97;633.60;;;;;;;;;;5070632;28;20048;-74
2021/06/10 06:54:16;;;;;;;702.45;624.22;;;;;;;;;;5004551;28;20046;-74
2021/06/10 06:56:42;;;;;;;704.38;626.55;;;;;;;;;;5008944;28;20441;-74
2021/06/10 06:59:08;;;;;;;674.40;595.83;;;;;;;;;;5021891;28;20080;-74
2021/06/10 07:01:34;;;;;;;714.03;635.33;;;;;;;;;;5032550;28;20029;-74
2021/06/10 07:04:02;;;;;;;756.97;675.72;;;;;;;;;;5015421;28;20040;-73
2021/06/10 07:06:43;;;;;;;825.40;739.50;;;;;;;;;;5016056;28;20074;-73
2021/06/10 07:09:09;;;;;;;745.50;664.97;;;;;;;;;;5014178;28;20080;-75
2021/06/10 07:11:37;;;;;;;703.28;626.60;;;;;;;;;;5015238;28;20025;-74
2021/06/10 07:14:03;;;;;;;755.42;674.42;;;;;;;;;;5022039;28;20037;-74
2021/06/10 07:16:29;;;;;;;745.42;666.15;;;;;;;;;;5027530;28;20030;-73
2021/06/10 07:18:58;;;;;;;704.80;628.33;;;;;;;;;;5011125;28;20046;-74
2021/06/10 07:21:24;;;;;;;713.03;636.05;;;;;;;;;;5007206;28;20029;-74
2021/06/10 07:23:50;;;;;;;731.08;653.05;;;;;;;;;;5014516;28;20030;-74
2021/06/10 07:26:16;;;;;;;694.58;619.25;;;;;;;;;;4974923;28;20046;-73
2021/06/10 07:28:42;;;;;;;760.42;680.10;;;;;;;;;;4965645;28;20424;-74
2021/06/10 07:31:27;;;;;;;776.67;695.40;;;;;;;;;;4970899;28;20531;-74
2021/06/10 07:33:53;;;;;;;733.78;656.20;;;;;;;;;;4983982;28;20079;-73
2021/06/10 07:36:19;;;;;;;808.75;725.67;;;;;;;;;;5001888;28;20509;-73
2021/06/10 07:38:45;;;;;;;808.47;725.50;;;;;;;;;;4973837;28;20032;-74
2021/06/10 07:41:11;;;;;;;741.83;663.97;;;;;;;;;;4991218;28;20346;-73
2021/06/10 07:43:40;;;;;;;729.55;653.00;;;;;;;;;;4970538;28;20035;-73
2021/06/10 07:46:06;;;;;;;729.92;653.75;;;;;;;;;;4979464;28;20031;-74
2021/06/10 07:48:32;;;;;;;893.22;805.72;;;;;;;;;;4973422;28;20068;-75
2021/06/10 07:50:58;;;;;;;896.25;808.50;;;;;;;;;;4988093;28;20033;-77
2021/06/10 07:53:24;;;;;;;739.17;663.03;;;;;;;;;;4986184;28;20030;-75
2021/06/10 07:55:58;;;;;;;717.88;643.05;;;;;;;;;;5000674;28;20374;-75
2021/06/10 07:58:24;;;;;;;772.78;694.55;;;;;;;;;;4982975;28;20018;-75
2021/06/10 08:00:50;;;;;;;797.90;717.58;;;;;;;;;;4987082;28;20459;-75
2021/06/10 08:03:16;;;;;;;748.65;671.92;;;;;;;;;;4969533;28;20036;-75
2021/06/10 08:05:42;;;;;;;794.17;714.60;;;;;;;;;;4994357;28;20026;-75
2021/06/10 08:08:09;;;;;;;800.50;720.70;;;;;;;;;;4986124;28;20022;-75
2021/06/10 08:10:35;;;;;;;799.28;719.65;;;;;;;;;;4982253;28;20478;-75
2021/06/10 08:13:01;;;;;;;776.50;698.20;;;;;;;;;;4973146;28;20034;-74
2021/06/10 08:15:27;;;;;;;769.92;692.60;;;;;;;;;;4982476;28;20030;-75
2021/06/10 08:17:53;;;;;;;758.80;682.85;;;;;;;;;;4960498;28;20031;-75
2021/06/10 08:20:19;;;;;;;770.80;694.03;;;;;;;;;;4958337;28;20031;-75
2021/06/10 08:22:46;;;;;;;783.80;706.67;;;;;;;;;;4990851;28;20521;-74
2021/06/10 08:25:12;;;;;;;817.45;737.95;;;;;;;;;;5015347;28;20419;-75
2021/06/10 08:27:38;;;;;;;759.83;684.92;;;;;;;;;;4989785;28;20195;-75
2021/06/10 08:30:05;;;;;;;813.38;733.97;;;;;;;;;;4988825;28;20065;-73
2021/06/10 08:32:31;;;;;;;821.63;742.25;;;;;;;;;;4985495;28;20027;-73
2021/06/10 08:34:57;;;;;;;852.40;771.03;;;;;;;;;;4982675;28;20490;-73
2021/06/10 08:37:24;;;;;;;782.10;705.13;;;;;;;;;;4984310;28;20020;-74
2021/06/10 08:39:50;;;;;;;849.20;768.20;;;;;;;;;;5006197;28;20026;-73
2021/06/10 08:42:16;;;;;;;860.22;778.75;;;;;;;;;;4968012;28;20118;-73
2021/06/10 08:44:43;;;;;;;859.67;778.80;;;;;;;;;;4968142;28;20034;-73
2021/06/10 08:47:10;;;;;;;771.72;696.90;;;;;;;;;;4964875;28;20038;-73
2021/06/10 08:49:36;;;;;;;837.17;757.97;;;;;;;;;;4993529;28;20069;-74
2021/06/10 08:52:06;;;;;;;842.72;762.90;;;;;;;;;;4961880;28;20473;-74
2021/06/10 08:54:32;;;;;;;854.75;774.08;;;;;;;;;;4996205;28;20028;-73
2021/06/10 08:56:59;;;;;;;876.55;794.90;;;;;;;;;;4971166;28;20579;-74
2021/06/10 08:59:25;;;;;;;933.33;848.42;;;;;;;;;;4988545;28;20037;-74
2021/06/10 09:01:51;;;;;;;884.42;803.15;;;;;;;;;;4984055;28;20031;-73
2021/06/10 09:04:18;;;;;;;827.60;750.35;;;;;;;;;;4964606;28;20058;-73
2021/06/10 09:06:48;;;;;;;891.70;810.53;;;;;;;;;;4966489;28;20053;-73
2021/06/10 09:09:14;;;;;;;796.30;721.95;;;;;;;;;;4984304;28;20065;-73
2021/06/10 09:11:40;;;;;;;944.70;861.40;;;;;;;;;;4959338;28;20041;-73
2021/06/10 09:14:08;;;;;;;899.88;819.53;;;;;;;;;;4982275;28;20025;-74
2021/06/10 09:16:38;;;;;;;850.22;773.47;;;;;;;;;;4982060;28;20014;-74
2021/06/10 09:19:07;;;;;;;;;;;;;;;;;;4983655;28;20073;-74
2021/06/10 09:21:39;;;;;;;929.40;847.90;;;;;;;;;;4977655;28;20611;-74
2021/06/10 09:24:19;;;;;;;914.13;834.88;;;;;;;;;;4989264;28;20037;-74
2021/06/10 09:26:46;;;;;;;;;;;;;;;;;;4975729;28;20022;-74
2021/06/10 09:29:12;;;;;;;860.63;786.22;;;;;;;;;;4967792;28;19937;-73
2021/06/10 09:31:40;;;;;;;927.03;848.75;;;;;;;;;;4978602;28;20394;-76
2021/06/10 09:34:09;;;;;;;956.97;877.55;;;;;;;;;;5002395;28;20033;-74
2021/06/10 09:36:42;;;;;;;948.53;870.22;;;;;;;;;;4988986;28;20023;-73
2021/06/10 09:39:13;;;;;;;939.20;861.47;;;;;;;;;;4956973;28;20709;-73
2021/06/10 09:41:58;;;;;;;948.10;869.92;;;;;;;;;;4962941;28;20056;-75
2021/06/10 09:44:37;;;;;;;933.47;856.58;;;;;;;;;;4978606;28;20031;-72
2021/06/10 09:47:05;;;;;;;950.28;872.50;;;;;;;;;;4983558;28;20034;-74
2021/06/10 09:49:31;;;;;;;973.08;893.53;;;;;;;;;;4987317;28;20031;-73
2021/06/10 09:51:57;;;;;;;972.13;893.05;;;;;;;;;;4961921;28;20026;-71
2021/06/10 09:54:43;;;;;;;980.92;901.58;;;;;;;;;;4964236;28;20088;-73
2021/06/10 09:57:13;;;;;;;1063.03;976.78;;;;;;;;;;5009249;28;20026;-74
2021/06/10 09:59:48;;;;;;;1200.45;999.90;;;;;;;;;;4974911;28;20301;-73
2021/06/10 10:02:25;;;;;;;1208.57;999.90;;;;;;;;;;4978400;28;20428;-73
2021/06/10 10:05:11;;;;;;;1294.70;999.90;;;;;;;;;;4978019;28;20033;-74
2021/06/10 10:07:38;;;;;;;1141.47;999.90;;;;;;;;;;4979957;28;20462;-74
2021/06/10 10:10:05;;;;;;;1098.82;999.90;;;;;;;;;;4960014;28;20040;-73
2021/06/10 10:12:32;;;;;;;1140.50;999.90;;;;;;;;;;5004104;28;20020;-73
2021/06/10 10:14:59;;;;;;;1075.43;992.10;;;;;;;;;;4970966;28;20113;-73
2021/06/10 10:17:26;;;;;;;1244.95;999.90;;;;;;;;;;4979542;28;20030;-72
2021/06/10 10:19:52;;;;;;;1213.57;999.90;;;;;;;;;;4992926;28;20027;-74
2021/06/10 10:22:18;;;;;;;1192.50;999.90;;;;;;;;;;4971129;28;20153;-72
2021/06/10 10:24:45;;;;;;;1112.82;999.90;;;;;;;;;;4989619;28;20059;-73
2021/06/10 10:27:13;;;;;;;1040.25;958.35;;;;;;;;;;4974038;28;20042;-73
2021/06/10 10:29:40;;;;;;;1022.70;942.58;;;;;;;;;;4992505;28;20047;-74
2021/06/10 10:32:07;;;;;;;1005.20;927.17;;;;;;;;;;4984573;28;20126;-73
2021/06/10 10:34:34;;;;;;;1084.75;998.05;;;;;;;;;;4976680;28;20030;-74
2021/06/10 10:37:11;;;;;;;1017.65;939.80;;;;;;;;;;4990387;28;20027;-73
2021/06/10 10:39:37;;;;;;;1001.63;924.95;;;;;;;;;;4989280;28;20110;-73
2021/06/10 10:42:04;;;;;;;1041.18;961.15;;;;;;;;;;4981943;28;20109;-73
2021/06/10 10:44:31;;;;;;;1005.58;928.35;;;;;;;;;;5005982;28;20039;-72
2021/06/10 10:47:00;;;;;;;1009.50;932.17;;;;;;;;;;4990498;28;20142;-74
2021/06/10 10:49:29;;;;;;;904.38;833.72;;;;;;;;;;5000146;28;20440;-73
2021/06/10 10:51:55;;;;;;;864.83;796.78;;;;;;;;;;4983570;28;20637;-73
2021/06/10 10:54:41;;;;;;;882.42;813.72;;;;;;;;;;4968789;28;20053;-73
2021/06/10 10:57:07;;;;;;;867.78;799.60;;;;;;;;;;4970565;28;20030;-73
2021/06/10 10:59:41;;;;;;;886.13;816.95;;;;;;;;;;4976814;28;20030;-72
2021/06/10 11:02:07;;;;;;;908.42;838.35;;;;;;;;;;4989302;28;20022;-73
2021/06/10 11:05:01;;;;;;;897.88;828.65;;;;;;;;;;4975681;28;20026;-73
2021/06/10 11:07:33;;;;;;;922.17;851.97;;;;;;;;;;4987343;28;20047;-73
2021/06/10 11:10:00;;;;;;;986.83;912.80;;;;;;;;;;4973135;28;20450;-73
2021/06/10 11:12:44;;;;;;;954.83;883.58;;;;;;;;;;4997753;28;20031;-73
2021/06/10 11:15:21;;;;;;;987.78;914.90;;;;;;;;;;4998107;28;20045;-74
2021/06/10 11:17:47;;;;;;;1038.22;961.75;;;;;;;;;;5007700;28;20018;-73
2021/06/10 11:20:15;;;;;;;1034.22;959.10;;;;;;;;;;4970546;28;20090;-74
2021/06/10 11:22:42;;;;;;;1297.72;999.90;;;;;;;;;;4987955;28;20076;-74
2021/06/10 11:25:10;;;;;;;919.20;851.42;;;;;;;;;;4967843;28;20031;-73
2021/06/10 11:27:42;;;;;;;962.92;892.50;;;;;;;;;;4970928;28;20428;-73
2021/06/10 11:30:10;;;;;;;1072.80;994.45;;;;;;;;;;4989435;28;20062;-73
2021/06/10 11:32:55;;;;;;;1010.42;937.42;;;;;;;;;;4990208;28;21284;-74
2021/06/10 11:35:32;;;;;;;1101.30;999.90;;;;;;;;;;4987572;28;20036;-76
2021/06/10 11:37:59;;;;;;;923.70;856.90;;;;;;;;;;4973344;28;20023;-73
2021/06/10 11:40:25;;;;;;;937.22;869.40;;;;;;;;;;4987355;28;20023;-73
2021/06/10 11:42:53;;;;;;;908.53;841.78;;;;;;;;;;5025288;28;20375;-73
2021/06/10 11:45:26;;;;;;;906.30;840.17;;;;;;;;;;4986999;28;20034;-73
2021/06/10 11:47:52;;;;;;;927.78;860.08;;;;;;;;;;4964757;28;20030;-72
2021/06/10 11:50:25;;;;;;;888.42;823.13;;;;;;;;;;5004149;28;20041;-73
2021/06/10 11:52:54;;;;;;;897.67;831.70;;;;;;;;;;5026490;28;20077;-73
2021/06/10 11:55:20;;;;;;;886.13;820.90;;;;;;;;;;5043825;28;20028;-72
2021/06/10 11:57:53;;;;;;;911.00;844.83;;;;;;;;;;5010251;28;20018;-71
2021/06/10 12:00:25;;;;;;;918.42;851.63;;;;;;;;;;4971175;28;20153;-72
2021/06/10 12:02:54;;;;;;;942.30;874.20;;;;;;;;;;4985121;28;20030;-72
2021/06/10 12:05:21;;;;;;;927.92;860.85;;;;;;;;;;4969263;28;20030;-72
2021/06/10 12:07:47;;;;;;;903.53;837.33;;;;;;;;;;5036902;28;20029;-73
2021/06/10 12:10:18;;;;;;;885.10;820.08;;;;;;;;;;4970415;28;20796;-72
2021/06/10 12:12:48;;;;;;;877.22;812.92;;;;;;;;;;4988472;28;20033;-74
2021/06/10 12:15:34;;;;;;;912.88;846.83;;;;;;;;;;5002728;28;20024;-74
2021/06/10 12:18:05;;;;;;;868.47;804.85;;;;;;;;;;5039536;28;20436;-74
2021/06/10 12:20:35;;;;;;;891.15;826.58;;;;;;;;;;4985369;28;20026;-74
2021/06/10 12:23:03;;;;;;;889.97;825.72;;;;;;;;;;4971706;28;20109;-74
2021/06/10 12:25:32;;;;;;;895.63;830.97;;;;;;;;;;4988138;28;20041;-74
2021/06/10 12:27:59;;;;;;;910.92;845.63;;;;;;;;;;4981081;28;20027;-75
2021/06/10 12:30:27;;;;;;;956.38;888.50;;;;;;;;;;4969127;28;20128;-74
2021/06/10 12:32:53;;;;;;;948.00;880.35;;;;;;;;;;4982098;28;20030;-75
2021/06/10 12:35:20;;;;;;;910.83;845.60;;;;;;;;;;5050069;28;20397;-74
2021/06/10 12:37:51;;;;;;;902.55;837.67;;;;;;;;;;4980380;28;20030;-75
2021/06/10 12:40:17;;;;;;;885.50;821.88;;;;;;;;;;4967388;28;20679;-75
2021/06/10 12:43:02;;;;;;;867.67;804.95;;;;;;;;;;4975898;28;20113;-75
2021/06/10 12:45:32;;;;;;;876.17;812.88;;;;;;;;;;4961830;28;20443;-75
2021/06/10 12:47:58;;;;;;;877.45;814.28;;;;;;;;;;4973357;28;20037;-74
2021/06/10 12:50:24;;;;;;;890.72;827.15;;;;;;;;;;4979882;28;20026;-75
2021/06/10 12:52:50;;;;;;;880.63;817.45;;;;;;;;;;4974981;28;20473;-74
2021/06/10 12:55:25;;;;;;;900.38;836.35;;;;;;;;;;4975908;28;20035;-75
2021/06/10 12:57:58;;;;;;;920.25;855.25;;;;;;;;;;4984072;28;20114;-73
2021/06/10 13:00:31;;;;;;;924.72;859.58;;;;;;;;;;4980018;28;20506;-75
2021/06/10 13:03:04;;;;;;;914.20;849.58;;;;;;;;;;5032523;28;20035;-76
2021/06/10 13:05:30;;;;;;;921.85;856.97;;;;;;;;;;5017605;28;20373;-74
2021/06/10 13:08:06;;;;;;;903.10;839.08;;;;;;;;;;4969911;28;20121;-74
2021/06/10 13:10:34;;;;;;;910.45;846.05;;;;;;;;;;4988733;28;20044;-74
2021/06/10 13:13:00;;;;;;;899.35;835.90;;;;;;;;;;4971102;28;20037;-75
2021/06/10 13:18:34;;;;;;;875.15;811.78;;;;;;;;;;4986783;28;20029;-74
2021/06/10 13:21:01;;;;;;;866.85;803.85;;;;;;;;;;4967556;28;20035;-74
2021/06/10 13:23:27;;;;;;;853.00;790.30;;;;;;;;;;4967393;28;20714;-74
2021/06/10 13:26:18;;;;;;;852.08;789.28;;;;;;;;;;4984265;28;20064;-74
2021/06/10 13:28:47;;;;;;;854.78;791.60;;;;;;;;;;4979020;28;20043;-75
2021/06/10 13:31:18;;;;;;;825.55;763.95;;;;;;;;;;4977194;28;20084;-74
2021/06/10 13:33:47;;;;;;;854.10;790.85;;;;;;;;;;4991971;28;20440;-74
2021/06/10 13:36:18;;;;;;;848.78;786.05;;;;;;;;;;5004136;28;20033;-74
2021/06/10 13:38:46;;;;;;;873.15;809.05;;;;;;;;;;4983611;28;20030;-75
2021/06/10 13:41:13;;;;;;;1101.35;999.90;;;;;;;;;;5006976;28;20420;-74
2021/06/10 13:43:40;;;;;;;1083.03;999.17;;;;;;;;;;5002306;28;20041;-74
2021/06/10 13:46:06;;;;;;;991.80;920.20;;;;;;;;;;4989789;28;20042;-75
2021/06/10 13:48:32;;;;;;;1015.50;942.42;;;;;;;;;;4971504;28;20756;-75
2021/06/10 13:50:58;;;;;;;876.30;811.80;;;;;;;;;;4984066;28;20026;-75
2021/06/10 13:53:24;;;;;;;915.58;848.28;;;;;;;;;;4969178;28;20619;-74
2021/06/10 13:55:50;;;;;;;1073.82;994.65;;;;;;;;;;4963373;28;20035;-74
2021/06/10 13:58:17;;;;;;;937.13;868.42;;;;;;;;;;4960585;28;20415;-75
2021/06/10 14:00:43;;;;;;;1001.05;926.97;;;;;;;;;;4983841;28;20428;-74
2021/06/10 14:03:10;;;;;;;1028.20;952.80;;;;;;;;;;4993102;28;20022;-74
2021/06/10 14:05:36;;;;;;;951.00;880.83;;;;;;;;;;5038127;28;20028;-74
2021/06/10 14:08:02;;;;;;;900.72;833.53;;;;;;;;;;4979256;28;20034;-74